Jetson, KY (42252)

9:40 AM CDT on July 24, 2014 (GMT -0500)
Ridgeview Drive (KKYBOWLI7) Elev 650 ft | 36.99 °N, 86.52 °W | Change Station

Current weather conditions updated 0 second ago

Overcast
Overcast
68.8 °F
Feels Like 68.8 °F
N
0.0
Wind Variable Wind from NNE
Gusts 0.0 mph

Today is forecast to be Much Cooler than yesterday.

Today
High -- | Low -- °F
--% Chance of Precip.
Yesterday
High -- | Low -- °F
Precip. -- in
5:44 AM 8:00 PM
Waning Crescent, 5% visible
Pressure 30.03 in
Visibility 10.0 miles
Clouds Overcast 1500 ft
Dew Point 66 °F
Humidity 90%
Rainfall 0.00 in
Snow Depth Not available.
UV 2 out of 12
Pollen 3.40 out of 12
Air Quality Not available.
Flu Activity Not available.
SPECI KBWG 241415Z AUTO 31005KT 10SM OVC015 22/18 A3003 RMK AO2 T02220183

More Conditions Fewer Conditions

Pressure 30.03 in
Visibility 10.0 miles
Clouds Overcast 1500 ft
Dew Point 66 °F
Humidity 90%
Rainfall 0.00 in
Snow Depth Not available.
UV 2 out of 12
Pollen 3.40 out of 12
Air Quality Not available.
Flu Activity Not available.
SPECI KBWG 241415Z AUTO 31005KT 10SM OVC015 22/18 A3003 RMK AO2 T02220183

More Conditions Fewer Conditions

10-Day Weather Forecast

Almanac

Astronomy

Jul. 24, 2014 Rise Set
Actual Time 5:44 AM CDT 8:00 PM CDT
Civil Twilight 5:14 AM CDT 8:29 PM CDT
Nautical Twilight 4:38 AM CDT 9:05 PM CDT
Astronomical Twilight 3:59 AM CDT 9:45 PM CDT
Moon 3:51 AM CDT 6:15 PM CDT
Length of Visible Light 15h 14m
Length of Day
14h 16m
Tomorrow will be 1m 34s shorter.
Waning Crescent, 5% of the Moon is Illuminated
Today
Waning Crescent
Jul 26
New
Aug 3
First Quarter
Aug 10
Full
Aug 17
Last Quarter

Today's Extremes

State Highs State Lows

Community

WunderPhotos

Upload Photos

1,737,027 photos uploaded!

Nearby

Snow Depth

Station Depth Elevation
No new snow has been reported.

Earthquake Activity

City Distance Mag. Time & Date
No recent earthquake activity has been reported nearby.
Minimum magnitude displayed is 2.5.

Coastal Water Temperatures

Place Temperature
No Stations Reporting

Nearby Weather Stations

Station Location Temp. Heat Index Dew Point Humidity Wind Precip. Elev Updated Type
Ridgeview Drive, Bowling Green, KY 68.8 °F - 66 °F 90% NNE  at  0.0 mph 0.00 in / hr 650 ft 9:40 AM CDT Rapid Fire
MIDCREST DR., Bowling Green, KY 71.4 °F 72 °F 65 °F 80% NNE  at  0.0 mph 0.00 in / hr 686 ft 9:40 AM CDT Rapid Fire
WNKY NBC & CBS 40 Weather, Bowling Green, KY 70.0 °F - 64 °F 83% West  at  6.0 mph 0.00 in / hr 538 ft 9:40 AM CDT Rapid Fire
Barton Run Lodge & Farm - Nolin Lake, Wax, KY 75.0 °F 77 °F 61 °F 62% North  at  0.0 mph 0.00 in / hr 597 ft 9:40 AM CDT Rapid Fire

Show More Stations Show Fewer Stations